sensor_id;sensor_type;location;lat;lon;timestamp;P1;durP1;ratioP1;P2;durP2;ratioP2
6197;SDS011;3132;42.622;23.328;2022-10-22T00:01:50;21.03;;;16.97;;
6197;SDS011;3132;42.622;23.328;2022-10-22T00:04:16;22.43;;;17.47;;
6197;SDS011;3132;42.622;23.328;2022-10-22T00:06:41;22.77;;;14.93;;
6197;SDS011;3132;42.622;23.328;2022-10-22T00:09:09;18.10;;;16.03;;
6197;SDS011;3132;42.622;23.328;2022-10-22T00:11:35;19.00;;;16.97;;
6197;SDS011;3132;42.622;23.328;2022-10-22T00:14:00;17.83;;;16.20;;
6197;SDS011;3132;42.622;23.328;2022-10-22T00:16:26;17.87;;;16.07;;
6197;SDS011;3132;42.622;23.328;2022-10-22T00:18:51;18.57;;;16.87;;
6197;SDS011;3132;42.622;23.328;2022-10-22T00:21:17;18.73;;;16.87;;
6197;SDS011;3132;42.622;23.328;2022-10-22T00:23:42;20.20;;;18.07;;
6197;SDS011;3132;42.622;23.328;2022-10-22T00:26:08;18.87;;;16.70;;
6197;SDS011;3132;42.622;23.328;2022-10-22T00:28:34;18.60;;;16.67;;
6197;SDS011;3132;42.622;23.328;2022-10-22T00:31:00;17.90;;;16.10;;
6197;SDS011;3132;42.622;23.328;2022-10-22T00:33:26;18.63;;;16.73;;
6197;SDS011;3132;42.622;23.328;2022-10-22T00:35:52;18.53;;;16.73;;
6197;SDS011;3132;42.622;23.328;2022-10-22T00:38:17;20.23;;;18.07;;
6197;SDS011;3132;42.622;23.328;2022-10-22T00:40:43;19.13;;;17.23;;
6197;SDS011;3132;42.622;23.328;2022-10-22T00:43:12;17.77;;;16.17;;
6197;SDS011;3132;42.622;23.328;2022-10-22T00:45:38;16.87;;;15.30;;
6197;SDS011;3132;42.622;23.328;2022-10-22T00:48:06;15.63;;;13.90;;
6197;SDS011;3132;42.622;23.328;2022-10-22T00:53:06;17.90;;;16.00;;
6197;SDS011;3132;42.622;23.328;2022-10-22T00:55:34;17.30;;;15.60;;
6197;SDS011;3132;42.622;23.328;2022-10-22T00:58:00;18.43;;;16.43;;
6197;SDS011;3132;42.622;23.328;2022-10-22T01:00:26;18.70;;;16.80;;
6197;SDS011;3132;42.622;23.328;2022-10-22T01:02:52;18.20;;;16.40;;
6197;SDS011;3132;42.622;23.328;2022-10-22T01:05:18;20.07;;;17.13;;
6197;SDS011;3132;42.622;23.328;2022-10-22T01:07:47;19.23;;;17.17;;
6197;SDS011;3132;42.622;23.328;2022-10-22T01:12:53;19.90;;;17.83;;
6197;SDS011;3132;42.622;23.328;2022-10-22T01:15:36;19.43;;;17.50;;
6197;SDS011;3132;42.622;23.328;2022-10-22T01:18:16;17.40;;;15.57;;
6197;SDS011;3132;42.622;23.328;2022-10-22T01:20:57;17.90;;;16.13;;
6197;SDS011;3132;42.622;23.328;2022-10-22T01:31:22;23.43;;;16.83;;
6197;SDS011;3132;42.622;23.328;2022-10-22T01:33:50;19.70;;;17.50;;
6197;SDS011;3132;42.622;23.328;2022-10-22T01:36:18;17.40;;;15.63;;
6197;SDS011;3132;42.622;23.328;2022-10-22T01:38:45;17.67;;;15.80;;
6197;SDS011;3132;42.622;23.328;2022-10-22T01:41:11;16.13;;;14.57;;
6197;SDS011;3132;42.622;23.328;2022-10-22T01:43:38;17.67;;;16.00;;
6197;SDS011;3132;42.622;23.328;2022-10-22T01:46:04;17.40;;;15.80;;
6197;SDS011;3132;42.622;23.328;2022-10-22T02:05:18;17.10;;;15.43;;
6197;SDS011;3132;42.622;23.328;2022-10-22T02:07:49;18.47;;;16.77;;
6197;SDS011;3132;42.622;23.328;2022-10-22T02:10:18;17.23;;;15.27;;
6197;SDS011;3132;42.622;23.328;2022-10-22T02:12:47;17.13;;;15.50;;
6197;SDS011;3132;42.622;23.328;2022-10-22T02:15:16;17.10;;;15.17;;
6197;SDS011;3132;42.622;23.328;2022-10-22T02:17:44;16.77;;;15.17;;
6197;SDS011;3132;42.622;23.328;2022-10-22T02:20:18;16.63;;;14.83;;
6197;SDS011;3132;42.622;23.328;2022-10-22T02:22:50;17.33;;;15.63;;
6197;SDS011;3132;42.622;23.328;2022-10-22T02:25:16;17.90;;;16.20;;
6197;SDS011;3132;42.622;23.328;2022-10-22T02:27:45;15.23;;;13.73;;
6197;SDS011;3132;42.622;23.328;2022-10-22T02:30:16;15.57;;;14.17;;
6197;SDS011;3132;42.622;23.328;2022-10-22T02:32:56;17.23;;;15.27;;
6197;SDS011;3132;42.622;23.328;2022-10-22T02:35:35;19.23;;;15.67;;
6197;SDS011;3132;42.622;23.328;2022-10-22T02:38:04;17.80;;;16.03;;
6197;SDS011;3132;42.622;23.328;2022-10-22T02:40:31;18.27;;;16.47;;
6197;SDS011;3132;42.622;23.328;2022-10-22T02:42:57;18.80;;;17.13;;
6197;SDS011;3132;42.622;23.328;2022-10-22T02:45:22;19.97;;;16.97;;
6197;SDS011;3132;42.622;23.328;2022-10-22T02:47:48;15.83;;;14.23;;
6197;SDS011;3132;42.622;23.328;2022-10-22T02:50:13;18.17;;;15.67;;
6197;SDS011;3132;42.622;23.328;2022-10-22T02:52:39;16.83;;;15.17;;
6197;SDS011;3132;42.622;23.328;2022-10-22T02:55:05;18.30;;;16.47;;
6197;SDS011;3132;42.622;23.328;2022-10-22T02:57:30;17.90;;;15.90;;
6197;SDS011;3132;42.622;23.328;2022-10-22T02:59:56;17.43;;;15.47;;
6197;SDS011;3132;42.622;23.328;2022-10-22T03:02:21;19.13;;;17.10;;
6197;SDS011;3132;42.622;23.328;2022-10-22T03:04:47;18.70;;;15.73;;
6197;SDS011;3132;42.622;23.328;2022-10-22T03:07:12;18.77;;;16.97;;
6197;SDS011;3132;42.622;23.328;2022-10-22T03:09:38;17.20;;;15.70;;
6197;SDS011;3132;42.622;23.328;2022-10-22T03:12:03;17.33;;;15.53;;
6197;SDS011;3132;42.622;23.328;2022-10-22T03:14:29;17.77;;;16.10;;
6197;SDS011;3132;42.622;23.328;2022-10-22T03:16:54;17.37;;;15.77;;
6197;SDS011;3132;42.622;23.328;2022-10-22T03:19:19;19.80;;;16.93;;
6197;SDS011;3132;42.622;23.328;2022-10-22T03:21:55;19.73;;;15.10;;
6197;SDS011;3132;42.622;23.328;2022-10-22T03:24:26;18.90;;;16.93;;
6197;SDS011;3132;42.622;23.328;2022-10-22T03:26:55;18.50;;;16.70;;
6197;SDS011;3132;42.622;23.328;2022-10-22T03:29:22;20.60;;;16.00;;
6197;SDS011;3132;42.622;23.328;2022-10-22T03:31:50;20.40;;;17.10;;
6197;SDS011;3132;42.622;23.328;2022-10-22T03:34:16;17.23;;;15.50;;
6197;SDS011;3132;42.622;23.328;2022-10-22T03:36:41;16.30;;;14.47;;
6197;SDS011;3132;42.622;23.328;2022-10-22T03:39:07;16.43;;;14.77;;
6197;SDS011;3132;42.622;23.328;2022-10-22T03:41:33;16.90;;;15.30;;
6197;SDS011;3132;42.622;23.328;2022-10-22T03:44:00;14.53;;;13.20;;
6197;SDS011;3132;42.622;23.328;2022-10-22T03:46:28;16.40;;;14.83;;
6197;SDS011;3132;42.622;23.328;2022-10-22T03:48:53;16.07;;;13.83;;
6197;SDS011;3132;42.622;23.328;2022-10-22T03:51:19;16.53;;;14.83;;
6197;SDS011;3132;42.622;23.328;2022-10-22T03:53:44;16.70;;;15.10;;
6197;SDS011;3132;42.622;23.328;2022-10-22T03:56:10;16.67;;;14.97;;
6197;SDS011;3132;42.622;23.328;2022-10-22T03:58:37;20.13;;;16.10;;
6197;SDS011;3132;42.622;23.328;2022-10-22T04:01:04;19.63;;;17.53;;
6197;SDS011;3132;42.622;23.328;2022-10-22T04:03:31;20.40;;;16.97;;
6197;SDS011;3132;42.622;23.328;2022-10-22T04:06:00;17.93;;;16.20;;
6197;SDS011;3132;42.622;23.328;2022-10-22T04:08:29;21.17;;;18.83;;
6197;SDS011;3132;42.622;23.328;2022-10-22T04:10:55;17.67;;;16.03;;
6197;SDS011;3132;42.622;23.328;2022-10-22T04:13:20;21.03;;;18.57;;
6197;SDS011;3132;42.622;23.328;2022-10-22T04:15:46;22.20;;;16.87;;
6197;SDS011;3132;42.622;23.328;2022-10-22T04:18:11;19.97;;;15.93;;
6197;SDS011;3132;42.622;23.328;2022-10-22T04:20:36;18.40;;;16.77;;
6197;SDS011;3132;42.622;23.328;2022-10-22T04:23:02;17.67;;;15.97;;
6197;SDS011;3132;42.622;23.328;2022-10-22T04:25:28;18.57;;;16.37;;
6197;SDS011;3132;42.622;23.328;2022-10-22T04:27:53;18.73;;;16.83;;
6197;SDS011;3132;42.622;23.328;2022-10-22T04:30:19;20.17;;;16.67;;
6197;SDS011;3132;42.622;23.328;2022-10-22T04:32:44;19.20;;;17.07;;
6197;SDS011;3132;42.622;23.328;2022-10-22T04:35:09;19.13;;;16.53;;
6197;SDS011;3132;42.622;23.328;2022-10-22T04:37:35;18.17;;;16.37;;
6197;SDS011;3132;42.622;23.328;2022-10-22T04:40:00;19.53;;;15.53;;
6197;SDS011;3132;42.622;23.328;2022-10-22T04:42:25;19.37;;;17.43;;
6197;SDS011;3132;42.622;23.328;2022-10-22T04:44:51;20.13;;;17.20;;
6197;SDS011;3132;42.622;23.328;2022-10-22T04:47:16;20.27;;;18.33;;
6197;SDS011;3132;42.622;23.328;2022-10-22T04:49:41;19.70;;;17.43;;
6197;SDS011;3132;42.622;23.328;2022-10-22T04:52:07;20.83;;;17.90;;
6197;SDS011;3132;42.622;23.328;2022-10-22T04:54:32;19.87;;;17.73;;
6197;SDS011;3132;42.622;23.328;2022-10-22T04:56:58;20.93;;;18.20;;
6197;SDS011;3132;42.622;23.328;2022-10-22T04:59:23;23.97;;;18.30;;
6197;SDS011;3132;42.622;23.328;2022-10-22T05:01:48;19.50;;;17.43;;
6197;SDS011;3132;42.622;23.328;2022-10-22T05:04:15;19.33;;;17.47;;
6197;SDS011;3132;42.622;23.328;2022-10-22T05:06:41;21.20;;;17.83;;
6197;SDS011;3132;42.622;23.328;2022-10-22T05:09:09;19.07;;;16.93;;
6197;SDS011;3132;42.622;23.328;2022-10-22T05:11:40;18.40;;;16.60;;
6197;SDS011;3132;42.622;23.328;2022-10-22T05:14:09;18.93;;;16.53;;
6197;SDS011;3132;42.622;23.328;2022-10-22T05:16:35;20.43;;;17.73;;
6197;SDS011;3132;42.622;23.328;2022-10-22T05:19:02;19.73;;;17.77;;
6197;SDS011;3132;42.622;23.328;2022-10-22T05:21:28;20.37;;;18.20;;
6197;SDS011;3132;42.622;23.328;2022-10-22T05:23:54;23.43;;;18.13;;
6197;SDS011;3132;42.622;23.328;2022-10-22T05:26:21;22.03;;;18.80;;
6197;SDS011;3132;42.622;23.328;2022-10-22T05:28:48;22.00;;;19.10;;
6197;SDS011;3132;42.622;23.328;2022-10-22T05:31:14;26.00;;;21.53;;
6197;SDS011;3132;42.622;23.328;2022-10-22T05:33:41;24.00;;;19.93;;
6197;SDS011;3132;42.622;23.328;2022-10-22T05:36:07;27.83;;;21.33;;
6197;SDS011;3132;42.622;23.328;2022-10-22T05:38:36;24.67;;;19.83;;
6197;SDS011;3132;42.622;23.328;2022-10-22T05:41:05;25.07;;;20.73;;
6197;SDS011;3132;42.622;23.328;2022-10-22T05:43:35;27.93;;;19.90;;
6197;SDS011;3132;42.622;23.328;2022-10-22T05:46:05;30.70;;;19.93;;
6197;SDS011;3132;42.622;23.328;2022-10-22T05:48:32;29.10;;;21.73;;
6197;SDS011;3132;42.622;23.328;2022-10-22T05:51:01;32.70;;;22.63;;
6197;SDS011;3132;42.622;23.328;2022-10-22T05:53:38;25.97;;;21.03;;
6197;SDS011;3132;42.622;23.328;2022-10-22T05:56:06;28.73;;;21.60;;
6197;SDS011;3132;42.622;23.328;2022-10-22T05:58:35;31.07;;;21.43;;
6197;SDS011;3132;42.622;23.328;2022-10-22T06:01:04;30.53;;;21.17;;
6197;SDS011;3132;42.622;23.328;2022-10-22T06:03:32;31.70;;;22.27;;
6197;SDS011;3132;42.622;23.328;2022-10-22T06:06:01;26.20;;;21.67;;
6197;SDS011;3132;42.622;23.328;2022-10-22T06:08:29;30.93;;;22.73;;
6197;SDS011;3132;42.622;23.328;2022-10-22T06:10:54;34.00;;;24.93;;
6197;SDS011;3132;42.622;23.328;2022-10-22T06:13:20;32.37;;;23.60;;
6197;SDS011;3132;42.622;23.328;2022-10-22T06:15:47;30.00;;;23.93;;
6197;SDS011;3132;42.622;23.328;2022-10-22T06:18:12;30.60;;;22.60;;
6197;SDS011;3132;42.622;23.328;2022-10-22T06:20:38;31.63;;;22.63;;
6197;SDS011;3132;42.622;23.328;2022-10-22T06:23:03;25.83;;;21.70;;
6197;SDS011;3132;42.622;23.328;2022-10-22T06:25:29;29.70;;;21.20;;
6197;SDS011;3132;42.622;23.328;2022-10-22T06:27:54;32.07;;;22.00;;
6197;SDS011;3132;42.622;23.328;2022-10-22T06:30:19;29.27;;;21.43;;
6197;SDS011;3132;42.622;23.328;2022-10-22T06:32:45;30.53;;;24.20;;
6197;SDS011;3132;42.622;23.328;2022-10-22T06:35:10;34.37;;;23.03;;
6197;SDS011;3132;42.622;23.328;2022-10-22T06:37:35;31.47;;;24.53;;
6197;SDS011;3132;42.622;23.328;2022-10-22T06:40:01;27.10;;;22.57;;
6197;SDS011;3132;42.622;23.328;2022-10-22T06:42:27;37.03;;;24.63;;
6197;SDS011;3132;42.622;23.328;2022-10-22T06:44:52;33.13;;;24.10;;
6197;SDS011;3132;42.622;23.328;2022-10-22T06:47:18;34.73;;;24.07;;
6197;SDS011;3132;42.622;23.328;2022-10-22T06:49:43;30.63;;;23.27;;
6197;SDS011;3132;42.622;23.328;2022-10-22T06:52:09;31.27;;;24.00;;
6197;SDS011;3132;42.622;23.328;2022-10-22T06:54:34;28.87;;;22.47;;
6197;SDS011;3132;42.622;23.328;2022-10-22T06:56:59;32.17;;;24.20;;
6197;SDS011;3132;42.622;23.328;2022-10-22T06:59:25;33.43;;;24.73;;
6197;SDS011;3132;42.622;23.328;2022-10-22T07:01:50;29.20;;;22.70;;
6197;SDS011;3132;42.622;23.328;2022-10-22T07:04:15;29.43;;;23.03;;
6197;SDS011;3132;42.622;23.328;2022-10-22T07:06:41;30.73;;;22.23;;
6197;SDS011;3132;42.622;23.328;2022-10-22T07:09:06;32.93;;;24.03;;
6197;SDS011;3132;42.622;23.328;2022-10-22T07:11:42;30.73;;;21.43;;
6197;SDS011;3132;42.622;23.328;2022-10-22T07:14:09;30.57;;;23.47;;
6197;SDS011;3132;42.622;23.328;2022-10-22T07:16:35;38.17;;;24.23;;
6197;SDS011;3132;42.622;23.328;2022-10-22T07:19:00;31.53;;;24.07;;
6197;SDS011;3132;42.622;23.328;2022-10-22T07:21:27;29.90;;;21.97;;
6197;SDS011;3132;42.622;23.328;2022-10-22T07:23:53;28.23;;;23.17;;
6197;SDS011;3132;42.622;23.328;2022-10-22T07:26:19;30.37;;;23.30;;
6197;SDS011;3132;42.622;23.328;2022-10-22T07:28:45;33.53;;;23.27;;
6197;SDS011;3132;42.622;23.328;2022-10-22T07:31:11;26.13;;;21.77;;
6197;SDS011;3132;42.622;23.328;2022-10-22T07:33:38;27.30;;;22.07;;
6197;SDS011;3132;42.622;23.328;2022-10-22T07:36:05;34.43;;;22.37;;
6197;SDS011;3132;42.622;23.328;2022-10-22T07:38:32;30.03;;;22.03;;
6197;SDS011;3132;42.622;23.328;2022-10-22T07:40:58;29.33;;;23.37;;
6197;SDS011;3132;42.622;23.328;2022-10-22T07:43:23;30.47;;;22.77;;
6197;SDS011;3132;42.622;23.328;2022-10-22T07:45:49;32.47;;;22.43;;
6197;SDS011;3132;42.622;23.328;2022-10-22T07:48:15;31.27;;;24.20;;
6197;SDS011;3132;42.622;23.328;2022-10-22T07:50:40;28.00;;;21.80;;
6197;SDS011;3132;42.622;23.328;2022-10-22T07:53:06;30.50;;;22.50;;
6197;SDS011;3132;42.622;23.328;2022-10-22T07:55:32;25.13;;;20.70;;
6197;SDS011;3132;42.622;23.328;2022-10-22T07:57:58;25.33;;;21.37;;
6197;SDS011;3132;42.622;23.328;2022-10-22T08:00:23;23.13;;;20.63;;
6197;SDS011;3132;42.622;23.328;2022-10-22T08:02:48;21.63;;;19.30;;
6197;SDS011;3132;42.622;23.328;2022-10-22T08:05:14;23.80;;;19.90;;
6197;SDS011;3132;42.622;23.328;2022-10-22T08:07:40;24.37;;;20.53;;
6197;SDS011;3132;42.622;23.328;2022-10-22T08:10:06;21.73;;;19.57;;
6197;SDS011;3132;42.622;23.328;2022-10-22T08:12:32;28.63;;;21.00;;
6197;SDS011;3132;42.622;23.328;2022-10-22T08:14:57;28.13;;;20.67;;
6197;SDS011;3132;42.622;23.328;2022-10-22T08:17:24;26.23;;;21.43;;
6197;SDS011;3132;42.622;23.328;2022-10-22T08:19:50;24.50;;;19.93;;
6197;SDS011;3132;42.622;23.328;2022-10-22T08:22:16;28.47;;;21.10;;
6197;SDS011;3132;42.622;23.328;2022-10-22T08:24:41;28.87;;;24.00;;
6197;SDS011;3132;42.622;23.328;2022-10-22T08:27:06;27.73;;;20.63;;
6197;SDS011;3132;42.622;23.328;2022-10-22T08:29:32;29.73;;;22.50;;
6197;SDS011;3132;42.622;23.328;2022-10-22T08:31:57;30.60;;;20.83;;
6197;SDS011;3132;42.622;23.328;2022-10-22T08:34:23;27.77;;;21.40;;
6197;SDS011;3132;42.622;23.328;2022-10-22T08:36:48;23.97;;;21.13;;
6197;SDS011;3132;42.622;23.328;2022-10-22T08:39:13;25.03;;;19.97;;
6197;SDS011;3132;42.622;23.328;2022-10-22T08:41:52;29.77;;;21.60;;
6197;SDS011;3132;42.622;23.328;2022-10-22T08:45:14;30.27;;;22.13;;
6197;SDS011;3132;42.622;23.328;2022-10-22T08:50:45;29.50;;;22.17;;
6197;SDS011;3132;42.622;23.328;2022-10-22T08:56:29;32.43;;;22.33;;
6197;SDS011;3132;42.622;23.328;2022-10-22T09:01:48;31.07;;;21.97;;
6197;SDS011;3132;42.622;23.328;2022-10-22T09:07:03;32.27;;;22.10;;
6197;SDS011;3132;42.622;23.328;2022-10-22T09:09:30;35.67;;;22.63;;
6197;SDS011;3132;42.622;23.328;2022-10-22T09:12:00;28.30;;;21.97;;
6197;SDS011;3132;42.622;23.328;2022-10-22T09:14:27;36.33;;;21.13;;
6197;SDS011;3132;42.622;23.328;2022-10-22T09:19:54;30.50;;;21.07;;
6197;SDS011;3132;42.622;23.328;2022-10-22T09:22:38;26.47;;;21.23;;
6197;SDS011;3132;42.622;23.328;2022-10-22T09:25:20;34.43;;;22.83;;
6197;SDS011;3132;42.622;23.328;2022-10-22T09:27:48;25.87;;;22.17;;
6197;SDS011;3132;42.622;23.328;2022-10-22T09:30:21;29.00;;;20.87;;
6197;SDS011;3132;42.622;23.328;2022-10-22T09:33:23;28.87;;;20.97;;
6197;SDS011;3132;42.622;23.328;2022-10-22T09:35:46;24.47;;;20.27;;
6197;SDS011;3132;42.622;23.328;2022-10-22T09:38:16;29.23;;;20.60;;
6197;SDS011;3132;42.622;23.328;2022-10-22T09:40:47;27.53;;;23.17;;
6197;SDS011;3132;42.622;23.328;2022-10-22T09:43:14;25.53;;;21.00;;
6197;SDS011;3132;42.622;23.328;2022-10-22T09:45:40;23.67;;;19.57;;
6197;SDS011;3132;42.622;23.328;2022-10-22T09:50:42;26.13;;;19.97;;
6197;SDS011;3132;42.622;23.328;2022-10-22T09:53:11;26.13;;;20.77;;
6197;SDS011;3132;42.622;23.328;2022-10-22T09:55:41;23.77;;;20.23;;
6197;SDS011;3132;42.622;23.328;2022-10-22T09:58:11;25.27;;;20.03;;
6197;SDS011;3132;42.622;23.328;2022-10-22T10:00:38;24.57;;;19.43;;
6197;SDS011;3132;42.622;23.328;2022-10-22T10:03:05;27.53;;;21.47;;
6197;SDS011;3132;42.622;23.328;2022-10-22T10:05:32;25.70;;;22.50;;
6197;SDS011;3132;42.622;23.328;2022-10-22T10:08:07;25.17;;;21.73;;
6197;SDS011;3132;42.622;23.328;2022-10-22T10:10:45;38.53;;;31.13;;
6197;SDS011;3132;42.622;23.328;2022-10-22T10:13:18;30.13;;;24.80;;
6197;SDS011;3132;42.622;23.328;2022-10-22T10:19:08;34.10;;;22.17;;
6197;SDS011;3132;42.622;23.328;2022-10-22T10:21:54;28.20;;;20.63;;
6197;SDS011;3132;42.622;23.328;2022-10-22T10:24:35;26.23;;;21.53;;
6197;SDS011;3132;42.622;23.328;2022-10-22T10:27:06;32.20;;;23.00;;
6197;SDS011;3132;42.622;23.328;2022-10-22T10:29:48;28.80;;;22.20;;
6197;SDS011;3132;42.622;23.328;2022-10-22T10:32:24;27.60;;;20.77;;
6197;SDS011;3132;42.622;23.328;2022-10-22T10:35:00;25.33;;;22.47;;
6197;SDS011;3132;42.622;23.328;2022-10-22T10:43:24;27.27;;;21.43;;
6197;SDS011;3132;42.622;23.328;2022-10-22T10:48:48;25.83;;;21.20;;
6197;SDS011;3132;42.622;23.328;2022-10-22T11:01:36;25.73;;;21.17;;
6197;SDS011;3132;42.622;23.328;2022-10-22T11:07:00;24.43;;;19.33;;
6197;SDS011;3132;42.622;23.328;2022-10-22T11:09:43;20.93;;;18.70;;
6197;SDS011;3132;42.622;23.328;2022-10-22T11:12:16;26.20;;;19.83;;
6197;SDS011;3132;42.622;23.328;2022-10-22T11:15:00;23.97;;;19.63;;
6197;SDS011;3132;42.622;23.328;2022-10-22T11:17:45;25.03;;;19.90;;
6197;SDS011;3132;42.622;23.328;2022-10-22T11:20:20;23.67;;;19.57;;
6197;SDS011;3132;42.622;23.328;2022-10-22T11:22:56;22.80;;;20.33;;
6197;SDS011;3132;42.622;23.328;2022-10-22T11:25:28;26.93;;;19.80;;
6197;SDS011;3132;42.622;23.328;2022-10-22T11:27:56;25.23;;;18.17;;
6197;SDS011;3132;42.622;23.328;2022-10-22T11:30:28;20.97;;;18.77;;
6197;SDS011;3132;42.622;23.328;2022-10-22T11:33:00;24.20;;;18.37;;
6197;SDS011;3132;42.622;23.328;2022-10-22T11:35:34;23.27;;;18.00;;
6197;SDS011;3132;42.622;23.328;2022-10-22T11:38:04;22.03;;;16.43;;
6197;SDS011;3132;42.622;23.328;2022-10-22T11:40:37;20.17;;;18.00;;
6197;SDS011;3132;42.622;23.328;2022-10-22T11:43:08;19.80;;;16.80;;
6197;SDS011;3132;42.622;23.328;2022-10-22T11:45:36;21.70;;;17.33;;
6197;SDS011;3132;42.622;23.328;2022-10-22T11:55:42;23.97;;;17.53;;
6197;SDS011;3132;42.622;23.328;2022-10-22T12:00:56;18.07;;;16.17;;
6197;SDS011;3132;42.622;23.328;2022-10-22T12:06:15;17.93;;;15.50;;
6197;SDS011;3132;42.622;23.328;2022-10-22T12:09:05;17.80;;;15.90;;
6197;SDS011;3132;42.622;23.328;2022-10-22T12:11:38;18.27;;;16.40;;
6197;SDS011;3132;42.622;23.328;2022-10-22T12:19:23;19.70;;;15.50;;
6197;SDS011;3132;42.622;23.328;2022-10-22T12:21:56;17.20;;;15.37;;
6197;SDS011;3132;42.622;23.328;2022-10-22T12:24:36;21.87;;;15.03;;
6197;SDS011;3132;42.622;23.328;2022-10-22T12:29:45;20.90;;;16.33;;
6197;SDS011;3132;42.622;23.328;2022-10-22T12:32:11;20.40;;;16.10;;
6197;SDS011;3132;42.622;23.328;2022-10-22T12:34:45;17.23;;;15.53;;
6197;SDS011;3132;42.622;23.328;2022-10-22T12:37:12;17.83;;;15.57;;
6197;SDS011;3132;42.622;23.328;2022-10-22T12:39:39;17.70;;;15.53;;
6197;SDS011;3132;42.622;23.328;2022-10-22T12:42:04;16.87;;;15.07;;
6197;SDS011;3132;42.622;23.328;2022-10-22T12:44:32;17.43;;;15.67;;
6197;SDS011;3132;42.622;23.328;2022-10-22T12:46:57;21.80;;;17.00;;
6197;SDS011;3132;42.622;23.328;2022-10-22T12:49:33;18.93;;;15.63;;
6197;SDS011;3132;42.622;23.328;2022-10-22T12:52:02;16.63;;;14.67;;
6197;SDS011;3132;42.622;23.328;2022-10-22T12:54:31;17.90;;;16.03;;
6197;SDS011;3132;42.622;23.328;2022-10-22T12:56:58;20.97;;;16.30;;
6197;SDS011;3132;42.622;23.328;2022-10-22T13:01:56;22.10;;;16.77;;
6197;SDS011;3132;42.622;23.328;2022-10-22T13:04:31;20.20;;;15.57;;
6197;SDS011;3132;42.622;23.328;2022-10-22T13:09:37;21.13;;;15.20;;
6197;SDS011;3132;42.622;23.328;2022-10-22T13:12:08;18.83;;;15.53;;
6197;SDS011;3132;42.622;23.328;2022-10-22T13:14:40;17.37;;;15.67;;
6197;SDS011;3132;42.622;23.328;2022-10-22T13:17:15;17.17;;;15.20;;
6197;SDS011;3132;42.622;23.328;2022-10-22T13:20:32;16.90;;;15.13;;
6197;SDS011;3132;42.622;23.328;2022-10-22T13:22:41;16.30;;;14.60;;
6197;SDS011;3132;42.622;23.328;2022-10-22T13:25:20;20.00;;;16.30;;
6197;SDS011;3132;42.622;23.328;2022-10-22T13:30:17;18.70;;;15.63;;
6197;SDS011;3132;42.622;23.328;2022-10-22T13:35:31;20.63;;;15.03;;
6197;SDS011;3132;42.622;23.328;2022-10-22T13:37:59;18.33;;;15.43;;
6197;SDS011;3132;42.622;23.328;2022-10-22T13:40:25;17.63;;;15.57;;
6197;SDS011;3132;42.622;23.328;2022-10-22T13:42:50;18.40;;;15.80;;
6197;SDS011;3132;42.622;23.328;2022-10-22T13:45:16;19.10;;;16.47;;
6197;SDS011;3132;42.622;23.328;2022-10-22T13:47:44;18.40;;;15.70;;
6197;SDS011;3132;42.622;23.328;2022-10-22T13:50:17;19.30;;;15.53;;
6197;SDS011;3132;42.622;23.328;2022-10-22T13:52:51;17.87;;;15.93;;
6197;SDS011;3132;42.622;23.328;2022-10-22T13:55:22;18.27;;;16.37;;
6197;SDS011;3132;42.622;23.328;2022-10-22T13:57:50;18.40;;;15.87;;
6197;SDS011;3132;42.622;23.328;2022-10-22T14:00:17;16.97;;;15.23;;
6197;SDS011;3132;42.622;23.328;2022-10-22T14:02:45;16.70;;;15.10;;
6197;SDS011;3132;42.622;23.328;2022-10-22T14:05:11;19.27;;;14.83;;
6197;SDS011;3132;42.622;23.328;2022-10-22T14:07:38;20.07;;;15.43;;
6197;SDS011;3132;42.622;23.328;2022-10-22T14:10:17;26.67;;;16.73;;
6197;SDS011;3132;42.622;23.328;2022-10-22T14:12:45;19.73;;;17.20;;
6197;SDS011;3132;42.622;23.328;2022-10-22T14:15:11;21.93;;;18.40;;
6197;SDS011;3132;42.622;23.328;2022-10-22T14:17:38;24.33;;;18.53;;
6197;SDS011;3132;42.622;23.328;2022-10-22T14:20:08;24.43;;;17.47;;
6197;SDS011;3132;42.622;23.328;2022-10-22T14:22:55;25.10;;;18.63;;
6197;SDS011;3132;42.622;23.328;2022-10-22T14:25:21;22.00;;;19.67;;
6197;SDS011;3132;42.622;23.328;2022-10-22T14:27:48;21.87;;;17.90;;
6197;SDS011;3132;42.622;23.328;2022-10-22T14:30:15;20.07;;;17.97;;
6197;SDS011;3132;42.622;23.328;2022-10-22T14:32:45;20.97;;;17.10;;
6197;SDS011;3132;42.622;23.328;2022-10-22T14:35:13;17.30;;;15.77;;
6197;SDS011;3132;42.622;23.328;2022-10-22T14:37:41;17.10;;;15.37;;
6197;SDS011;3132;42.622;23.328;2022-10-22T14:40:07;18.83;;;15.47;;
6197;SDS011;3132;42.622;23.328;2022-10-22T14:42:38;17.33;;;15.43;;
6197;SDS011;3132;42.622;23.328;2022-10-22T14:45:06;16.00;;;14.50;;
6197;SDS011;3132;42.622;23.328;2022-10-22T14:47:43;18.37;;;16.47;;
6197;SDS011;3132;42.622;23.328;2022-10-22T14:50:09;17.87;;;15.97;;
6197;SDS011;3132;42.622;23.328;2022-10-22T14:52:35;19.57;;;15.70;;
6197;SDS011;3132;42.622;23.328;2022-10-22T14:55:00;18.50;;;16.10;;
6197;SDS011;3132;42.622;23.328;2022-10-22T14:57:26;17.53;;;15.07;;
6197;SDS011;3132;42.622;23.328;2022-10-22T14:59:51;28.20;;;19.07;;
6197;SDS011;3132;42.622;23.328;2022-10-22T15:02:19;23.73;;;16.97;;
6197;SDS011;3132;42.622;23.328;2022-10-22T15:04:45;23.53;;;16.93;;
6197;SDS011;3132;42.622;23.328;2022-10-22T15:07:11;22.23;;;18.33;;
6197;SDS011;3132;42.622;23.328;2022-10-22T15:09:36;27.77;;;18.83;;
6197;SDS011;3132;42.622;23.328;2022-10-22T15:12:01;25.17;;;18.73;;
6197;SDS011;3132;42.622;23.328;2022-10-22T15:14:27;19.83;;;17.93;;
6197;SDS011;3132;42.622;23.328;2022-10-22T15:16:52;26.93;;;19.23;;
6197;SDS011;3132;42.622;23.328;2022-10-22T15:19:18;22.10;;;18.93;;
6197;SDS011;3132;42.622;23.328;2022-10-22T15:21:43;21.20;;;18.97;;
6197;SDS011;3132;42.622;23.328;2022-10-22T15:24:08;28.27;;;20.53;;
6197;SDS011;3132;42.622;23.328;2022-10-22T15:26:34;27.10;;;20.57;;
6197;SDS011;3132;42.622;23.328;2022-10-22T15:29:00;26.97;;;19.60;;
6197;SDS011;3132;42.622;23.328;2022-10-22T15:31:41;20.23;;;16.43;;
6197;SDS011;3132;42.622;23.328;2022-10-22T15:34:10;18.17;;;15.83;;
6197;SDS011;3132;42.622;23.328;2022-10-22T15:36:36;15.60;;;14.23;;
6197;SDS011;3132;42.622;23.328;2022-10-22T15:39:05;15.70;;;14.33;;
6197;SDS011;3132;42.622;23.328;2022-10-22T15:41:34;20.27;;;16.53;;
6197;SDS011;3132;42.622;23.328;2022-10-22T15:44:01;16.13;;;14.53;;
6197;SDS011;3132;42.622;23.328;2022-10-22T15:46:27;16.13;;;14.43;;
6197;SDS011;3132;42.622;23.328;2022-10-22T15:48:53;17.07;;;15.03;;
6197;SDS011;3132;42.622;23.328;2022-10-22T15:51:19;17.50;;;14.10;;
6197;SDS011;3132;42.622;23.328;2022-10-22T15:53:52;19.13;;;17.07;;
6197;SDS011;3132;42.622;23.328;2022-10-22T15:56:19;20.50;;;17.20;;
6197;SDS011;3132;42.622;23.328;2022-10-22T15:58:45;27.60;;;18.67;;
6197;SDS011;3132;42.622;23.328;2022-10-22T16:01:11;23.37;;;17.93;;
6197;SDS011;3132;42.622;23.328;2022-10-22T16:03:38;23.10;;;19.10;;
6197;SDS011;3132;42.622;23.328;2022-10-22T16:06:05;21.87;;;17.43;;
6197;SDS011;3132;42.622;23.328;2022-10-22T16:08:32;21.17;;;18.50;;
6197;SDS011;3132;42.622;23.328;2022-10-22T16:10:58;19.60;;;16.73;;
6197;SDS011;3132;42.622;23.328;2022-10-22T16:13:23;18.83;;;17.03;;
6197;SDS011;3132;42.622;23.328;2022-10-22T16:15:50;19.50;;;16.30;;
6197;SDS011;3132;42.622;23.328;2022-10-22T16:18:16;19.00;;;16.27;;
6197;SDS011;3132;42.622;23.328;2022-10-22T16:20:42;19.77;;;17.03;;
6197;SDS011;3132;42.622;23.328;2022-10-22T16:23:08;16.93;;;15.13;;
6197;SDS011;3132;42.622;23.328;2022-10-22T16:25:40;16.53;;;14.57;;